Time;durP1;ratioP1;P1;durP2;ratioP2;P2;SDS_P1;SDS_P2;PMS_P1;PMS_P2;Temp;Humidity;BMP_temperature;BMP_pressure;BME280_temperature;BME280_humidity;BME280_pressure;Samples;Min_cycle;Max_cycle;Signal;HPM_P1;HPM_P2
2022/04/03 00:01:30;;;;;;;7.70;5.10;;;19.00;48.40;;;;;;5051766;28;20032;-72
2022/04/03 00:03:56;;;;;;;8.45;5.50;;;19.00;48.50;;;;;;5048842;28;20029;-72
2022/04/03 00:06:24;;;;;;;7.90;5.20;;;18.90;48.40;;;;;;5048092;28;20036;-72
2022/04/03 00:08:50;;;;;;;7.90;4.82;;;18.90;48.50;;;;;;5050268;28;20032;-72
2022/04/03 00:11:16;;;;;;;8.82;5.20;;;18.90;48.50;;;;;;5047878;28;20017;-72
2022/04/03 00:13:42;;;;;;;8.50;5.25;;;18.80;48.50;;;;;;5047979;28;20408;-72
2022/04/03 00:16:07;;;;;;;8.23;5.22;;;18.90;48.40;;;;;;5048553;28;20033;-72
2022/04/03 00:18:33;;;;;;;6.45;4.65;;;18.80;48.80;;;;;;5049091;28;20036;-72
2022/04/03 00:20:59;;;;;;;7.63;5.03;;;18.80;48.50;;;;;;5044697;28;20056;-71
2022/04/03 00:23:25;;;;;;;6.85;4.63;;;18.70;48.70;;;;;;5048346;28;20516;-71
2022/04/03 00:25:51;;;;;;;7.85;4.70;;;18.70;48.80;;;;;;5048427;28;20053;-72
2022/04/03 00:28:17;;;;;;;8.80;4.78;;;18.70;49.00;;;;;;5047193;28;20071;-72
2022/04/03 00:30:43;;;;;;;7.40;5.00;;;18.70;48.90;;;;;;5048175;28;20021;-72
2022/04/03 00:33:10;;;;;;;7.68;4.55;;;18.60;48.90;;;;;;5045037;28;20052;-72
2022/04/03 00:35:35;;;;;;;7.68;4.90;;;18.60;48.80;;;;;;5047432;28;20076;-72
2022/04/03 00:38:01;;;;;;;7.82;4.93;;;18.60;48.80;;;;;;5047852;28;20052;-72
2022/04/03 00:40:27;;;;;;;7.65;4.65;;;18.60;48.80;;;;;;5044902;28;20818;-72
2022/04/03 00:42:52;;;;;;;7.43;4.55;;;18.60;48.80;;;;;;5047764;28;20033;-72
2022/04/03 00:45:19;;;;;;;7.93;4.47;;;18.50;48.70;;;;;;5048478;28;20082;-72
2022/04/03 00:47:45;;;;;;;7.53;4.38;;;18.50;48.70;;;;;;5048731;28;20116;-72
2022/04/03 00:50:11;;;;;;;8.60;4.45;;;18.50;48.60;;;;;;5046155;28;20060;-72
2022/04/03 00:52:37;;;;;;;6.53;4.20;;;18.40;48.60;;;;;;5047973;28;20061;-71
2022/04/03 00:55:03;;;;;;;6.55;4.38;;;18.40;48.60;;;;;;5048430;28;20067;-72
2022/04/03 00:57:29;;;;;;;7.20;4.10;;;18.40;48.70;;;;;;5047616;28;20104;-72
2022/04/03 00:59:55;;;;;;;6.72;4.30;;;18.40;48.80;;;;;;5047859;28;20168;-72
2022/04/03 01:02:21;;;;;;;6.45;4.47;;;18.30;48.70;;;;;;5047374;28;20035;-72
2022/04/03 01:04:47;;;;;;;7.40;3.80;;;18.30;48.70;;;;;;5046924;28;20046;-72
2022/04/03 01:07:12;;;;;;;7.30;4.18;;;18.30;48.90;;;;;;5047276;28;20045;-72
2022/04/03 01:09:38;;;;;;;6.43;4.13;;;18.20;48.80;;;;;;5048462;28;20025;-72
2022/04/03 01:12:05;;;;;;;6.57;4.10;;;18.20;48.80;;;;;;5047853;28;20508;-71
2022/04/03 01:14:31;;;;;;;6.50;3.95;;;18.20;48.80;;;;;;5040102;28;20029;-72
2022/04/03 01:16:57;;;;;;;6.18;4.00;;;18.20;48.70;;;;;;5046048;28;20024;-72
2022/04/03 01:19:24;;;;;;;6.57;3.90;;;18.10;48.70;;;;;;5047462;28;20033;-71
2022/04/03 01:21:49;;;;;;;5.35;3.85;;;18.10;48.80;;;;;;5046388;28;20028;-72
2022/04/03 01:24:19;;;;;;;5.85;3.90;;;18.10;48.80;;;;;;5046662;28;20025;-71
2022/04/03 01:26:45;;;;;;;6.63;4.03;;;18.10;48.80;;;;;;5046160;28;20089;-70
2022/04/03 01:29:11;;;;;;;5.72;3.88;;;18.00;48.80;;;;;;5045621;28;20021;-72
2022/04/03 01:31:36;;;;;;;5.95;3.90;;;18.00;48.80;;;;;;5045510;28;20032;-71
2022/04/03 01:34:02;;;;;;;6.78;3.90;;;18.00;48.80;;;;;;5047431;28;20052;-72
2022/04/03 01:36:28;;;;;;;6.57;4.00;;;18.00;48.80;;;;;;5046833;28;20443;-72
2022/04/03 01:38:53;;;;;;;6.10;3.90;;;18.00;48.80;;;;;;5047943;28;20045;-71
2022/04/03 01:41:19;;;;;;;8.45;3.83;;;17.90;48.70;;;;;;5047097;28;20032;-72
2022/04/03 01:43:44;;;;;;;6.40;3.80;;;17.90;48.80;;;;;;5047174;28;20040;-71
2022/04/03 01:46:10;;;;;;;5.88;3.72;;;17.90;48.70;;;;;;5045807;28;20037;-71
2022/04/03 01:48:36;;;;;;;6.30;3.60;;;17.90;48.70;;;;;;5046942;28;20037;-71
2022/04/03 01:51:01;;;;;;;6.65;3.63;;;17.80;48.70;;;;;;5047874;28;20103;-71
2022/04/03 01:53:27;;;;;;;6.47;3.78;;;17.80;48.70;;;;;;5046877;28;20036;-71
2022/04/03 01:56:03;;;;;;;6.43;3.65;;;17.80;48.60;;;;;;5045991;28;20028;-71
2022/04/03 01:58:29;;;;;;;6.60;3.83;;;17.80;48.70;;;;;;5046632;28;20504;-71
2022/04/03 02:00:55;;;;;;;6.50;3.80;;;17.70;48.50;;;;;;5046739;28;20045;-71
2022/04/03 02:03:21;;;;;;;5.80;3.42;;;17.70;48.60;;;;;;5045567;28;20550;-72
2022/04/03 02:05:47;;;;;;;5.57;3.53;;;17.70;48.90;;;;;;5047561;28;20029;-71
2022/04/03 02:08:13;;;;;;;5.63;3.63;;;17.70;48.70;;;;;;5046348;28;20106;-71
2022/04/03 02:10:38;;;;;;;6.30;3.70;;;17.60;48.60;;;;;;5046859;28;20024;-71
2022/04/03 02:13:04;;;;;;;5.78;3.45;;;17.60;48.90;;;;;;5045333;28;20025;-71
2022/04/03 02:15:30;;;;;;;5.85;3.60;;;17.60;48.50;;;;;;5046334;28;20118;-71
2022/04/03 02:17:56;;;;;;;5.65;3.50;;;17.60;49.10;;;;;;5044554;28;20517;-71
2022/04/03 02:20:22;;;;;;;5.40;3.30;;;17.60;49.00;;;;;;5044452;28;20041;-71
2022/04/03 02:22:47;;;;;;;6.18;3.78;;;17.50;48.70;;;;;;5046493;28;20036;-71
2022/04/03 02:25:14;;;;;;;7.15;3.55;;;17.50;49.00;;;;;;5046362;28;20044;-71
2022/04/03 02:27:44;;;;;;;5.43;3.28;;;17.50;49.00;;;;;;5060807;28;20045;-71
2022/04/03 02:30:10;;;;;;;5.28;3.38;;;17.50;49.20;;;;;;5046479;28;20028;-71
2022/04/03 02:32:39;;;;;;;6.05;3.63;;;17.50;49.00;;;;;;5046863;28;20029;-71
2022/04/03 02:35:06;;;;;;;5.28;3.25;;;17.40;48.80;;;;;;5043463;28;20025;-71
2022/04/03 02:37:33;;;;;;;5.38;3.38;;;17.40;49.20;;;;;;5046330;28;20075;-71
2022/04/03 02:39:59;;;;;;;6.32;3.33;;;17.40;48.80;;;;;;5045783;28;20433;-71
2022/04/03 02:42:25;;;;;;;5.65;3.30;;;17.40;49.30;;;;;;5046375;28;20086;-71
2022/04/03 02:44:51;;;;;;;5.53;3.30;;;17.40;49.00;;;;;;5047460;28;20100;-71
2022/04/03 02:47:17;;;;;;;5.95;3.33;;;17.30;49.40;;;;;;5045079;28;20094;-71
2022/04/03 02:49:43;;;;;;;4.85;3.20;;;17.30;49.20;;;;;;5045827;28;20604;-71
2022/04/03 02:52:09;;;;;;;6.82;3.25;;;17.30;49.00;;;;;;5044830;28;20388;-71
2022/04/03 02:54:34;;;;;;;5.45;3.00;;;17.30;49.10;;;;;;5046222;28;20094;-71
2022/04/03 02:57:00;;;;;;;6.07;3.22;;;17.30;49.20;;;;;;5047440;28;20024;-71
2022/04/03 02:59:26;;;;;;;4.97;3.00;;;17.20;49.30;;;;;;5045436;28;20033;-71
2022/04/03 03:01:52;;;;;;;5.07;3.03;;;17.20;49.30;;;;;;5045535;28;20021;-71
2022/04/03 03:04:17;;;;;;;5.40;3.08;;;17.20;49.20;;;;;;5045106;28;20037;-71
2022/04/03 03:06:43;;;;;;;6.72;3.10;;;17.20;49.40;;;;;;5045325;28;20507;-71
2022/04/03 03:09:09;;;;;;;4.30;2.90;;;17.20;49.60;;;;;;5045588;28;20507;-71
2022/04/03 03:11:34;;;;;;;4.68;3.00;;;17.20;49.70;;;;;;5045620;28;20563;-71
2022/04/03 03:14:00;;;;;;;4.88;3.00;;;17.20;49.50;;;;;;5045738;28;20253;-71
2022/04/03 03:16:26;;;;;;;4.68;2.90;;;17.10;49.90;;;;;;5045732;28;20021;-71
2022/04/03 03:18:51;;;;;;;4.85;2.90;;;17.10;49.80;;;;;;5045439;28;20418;-71
2022/04/03 03:21:17;;;;;;;5.80;3.00;;;17.10;49.90;;;;;;5045833;28;20070;-71
2022/04/03 03:23:43;;;;;;;4.15;2.80;;;17.10;50.00;;;;;;5046674;28;20028;-70
2022/04/03 03:26:08;;;;;;;5.22;3.00;;;17.10;49.80;;;;;;5047166;28;20032;-71
2022/04/03 03:28:34;;;;;;;4.22;2.67;;;17.10;50.10;;;;;;5049802;28;20051;-71
2022/04/03 03:31:00;;;;;;;4.50;2.85;;;17.00;49.80;;;;;;5049407;28;20499;-71
2022/04/03 03:33:25;;;;;;;5.07;2.95;;;17.00;50.00;;;;;;5048619;28;20068;-70
2022/04/03 03:35:51;;;;;;;6.18;3.10;;;17.00;49.90;;;;;;5050900;28;20025;-71
2022/04/03 03:38:17;;;;;;;4.93;2.83;;;17.00;50.10;;;;;;5049228;28;20121;-70
2022/04/03 03:40:42;;;;;;;4.10;2.72;;;17.00;50.10;;;;;;5048963;28;20139;-71
2022/04/03 03:43:09;;;;;;;4.65;2.72;;;17.00;50.00;;;;;;5048713;28;20047;-70
2022/04/03 03:45:35;;;;;;;4.78;2.88;;;16.90;49.90;;;;;;5049556;28;20029;-70
2022/04/03 03:48:01;;;;;;;6.10;2.97;;;16.90;50.20;;;;;;5050134;28;20123;-71
2022/04/03 03:50:27;;;;;;;4.22;2.78;;;16.90;49.80;;;;;;5044779;28;20108;-70
2022/04/03 03:52:52;;;;;;;4.45;2.75;;;16.90;50.00;;;;;;5050208;28;20029;-70
2022/04/03 03:55:18;;;;;;;4.93;2.65;;;16.90;50.00;;;;;;5050454;28;20470;-71
2022/04/03 03:57:47;;;;;;;4.70;2.50;;;16.90;50.10;;;;;;5049449;28;20588;-70
2022/04/03 04:00:13;;;;;;;5.63;2.60;;;16.80;49.70;;;;;;5065461;28;20099;-70
2022/04/03 04:02:39;;;;;;;3.35;2.33;;;16.80;49.90;;;;;;5048844;28;20028;-70
2022/04/03 04:05:05;;;;;;;3.97;2.40;;;16.80;49.90;;;;;;5049364;28;20017;-70
2022/04/03 04:07:44;;;;;;;5.28;2.55;;;16.80;49.90;;;;;;5048231;28;20037;-70
2022/04/03 04:10:16;;;;;;;4.32;2.60;;;16.80;49.90;;;;;;5052917;28;20021;-70
2022/04/03 04:12:45;;;;;;;5.28;2.60;;;16.70;49.80;;;;;;5048393;28;20119;-71
2022/04/03 04:15:12;;;;;;;4.57;2.60;;;16.70;49.80;;;;;;5048408;28;20029;-70
2022/04/03 04:17:42;;;;;;;3.40;2.45;;;16.70;49.90;;;;;;5049111;28;20501;-70
2022/04/03 04:20:11;;;;;;;4.30;2.38;;;16.70;49.70;;;;;;5046661;28;20217;-70
2022/04/03 04:22:37;;;;;;;4.32;2.45;;;16.70;50.00;;;;;;5047420;28;20067;-70
2022/04/03 04:25:03;;;;;;;4.50;2.30;;;16.70;49.60;;;;;;5046255;28;20100;-70
2022/04/03 04:27:28;;;;;;;5.95;2.70;;;16.70;49.90;;;;;;5049197;28;20032;-70
2022/04/03 04:29:54;;;;;;;4.13;2.55;;;16.60;49.80;;;;;;5052703;28;20777;-70
2022/04/03 04:32:21;;;;;;;4.40;2.53;;;16.60;49.70;;;;;;5052364;28;20052;-70
2022/04/03 04:34:48;;;;;;;3.20;2.20;;;16.60;50.00;;;;;;5049886;28;20024;-70
2022/04/03 04:37:14;;;;;;;3.50;2.20;;;16.60;49.80;;;;;;5046493;28;20417;-70
2022/04/03 04:39:39;;;;;;;3.95;2.40;;;16.60;49.70;;;;;;5049585;28;20041;-70
2022/04/03 04:42:05;;;;;;;3.63;2.30;;;16.60;50.10;;;;;;5049086;28;20032;-70
2022/04/03 04:44:31;;;;;;;4.07;2.30;;;16.50;49.80;;;;;;5052893;28;20037;-70
2022/04/03 04:46:57;;;;;;;4.07;2.17;;;16.50;49.80;;;;;;5047069;28;20021;-70
2022/04/03 04:49:22;;;;;;;3.10;2.17;;;16.50;49.90;;;;;;5044449;28;20030;-70
2022/04/03 04:51:48;;;;;;;3.92;2.28;;;16.50;49.90;;;;;;5048351;28;20021;-70
2022/04/03 04:54:14;;;;;;;4.88;2.28;;;16.50;49.90;;;;;;5046314;28;20628;-70
2022/04/03 04:56:41;;;;;;;4.18;2.42;;;16.50;49.80;;;;;;5050244;28;20021;-70
2022/04/03 04:59:06;;;;;;;3.10;2.13;;;16.40;49.90;;;;;;5047726;28;20025;-70
2022/04/03 05:01:32;;;;;;;3.78;2.20;;;16.40;49.90;;;;;;5044558;28;20024;-70
2022/04/03 05:03:58;;;;;;;3.17;2.10;;;16.50;49.80;;;;;;5046178;28;20028;-70
2022/04/03 05:06:26;;;;;;;4.10;2.15;;;16.40;50.00;;;;;;5041752;28;20040;-70
2022/04/03 05:08:52;;;;;;;3.33;2.10;;;16.40;49.70;;;;;;5043009;28;20040;-70
2022/04/03 05:11:18;;;;;;;5.13;2.20;;;16.40;49.90;;;;;;5045381;28;20021;-70
2022/04/03 05:13:45;;;;;;;4.40;2.25;;;16.40;49.70;;;;;;5045900;28;20094;-70
2022/04/03 05:16:11;;;;;;;2.80;2.00;;;16.30;49.70;;;;;;5046031;28;20029;-70
2022/04/03 05:18:36;;;;;;;3.75;1.90;;;16.30;49.70;;;;;;5027963;28;20068;-70
2022/04/03 05:21:04;;;;;;;3.00;1.92;;;16.30;49.80;;;;;;5050209;28;20108;-70
2022/04/03 05:23:30;;;;;;;2.58;1.90;;;16.30;49.70;;;;;;5050963;28;20447;-70
2022/04/03 05:25:56;;;;;;;4.18;2.20;;;16.30;49.90;;;;;;5053834;28;20120;-70
2022/04/03 05:28:22;;;;;;;3.53;2.20;;;16.30;50.00;;;;;;5044805;28;20045;-70
2022/04/03 05:30:49;;;;;;;2.50;1.80;;;16.20;49.70;;;;;;5044353;28;20111;-70
2022/04/03 05:33:15;;;;;;;3.35;2.05;;;16.20;49.80;;;;;;5048805;28;20036;-70
2022/04/03 05:35:41;;;;;;;3.45;2.10;;;16.20;49.80;;;;;;5050106;28;20520;-70
2022/04/03 05:38:07;;;;;;;3.92;2.00;;;16.20;49.90;;;;;;5048097;28;20432;-70
2022/04/03 05:40:32;;;;;;;3.28;2.00;;;16.20;49.70;;;;;;5051319;28;20023;-70
2022/04/03 05:42:58;;;;;;;5.00;2.08;;;16.20;49.90;;;;;;5050644;28;20025;-70
2022/04/03 05:45:24;;;;;;;3.78;1.88;;;16.20;49.70;;;;;;5045033;28;20033;-67
2022/04/03 05:47:50;;;;;;;3.42;1.80;;;16.10;49.70;;;;;;5042372;28;20048;-70
2022/04/03 05:50:16;;;;;;;4.82;2.00;;;16.10;50.00;;;;;;5042679;28;20078;-70
2022/04/03 05:52:49;;;;;;;3.28;1.80;;;16.10;49.90;;;;;;5047321;28;20405;-70
2022/04/03 05:55:16;;;;;;;3.85;2.00;;;16.10;49.90;;;;;;5044558;28;20136;-69
2022/04/03 05:57:42;;;;;;;3.85;2.17;;;16.10;49.90;;;;;;5044726;28;20029;-70
2022/04/03 06:00:12;;;;;;;3.45;1.70;;;16.10;49.70;;;;;;5045379;28;20033;-69
2022/04/03 06:02:55;;;;;;;3.67;2.00;;;16.10;49.90;;;;;;5050969;28;20029;-70
2022/04/03 06:05:24;;;;;;;3.38;1.77;;;16.00;49.90;;;;;;5044121;28;20044;-70
2022/04/03 06:07:50;;;;;;;3.08;1.88;;;16.00;49.90;;;;;;5044552;28;20604;-69
2022/04/03 06:10:16;;;;;;;3.42;1.70;;;16.00;49.90;;;;;;5044301;28;20032;-70
2022/04/03 06:13:05;;;;;;;3.60;1.80;;;16.00;49.90;;;;;;5046885;28;20029;-70
2022/04/03 06:15:35;;;;;;;3.10;1.75;;;16.00;49.90;;;;;;5046832;28;20029;-69
2022/04/03 06:18:07;;;;;;;4.80;1.90;;;15.90;49.80;;;;;;5045551;28;20031;-70
2022/04/03 06:20:33;;;;;;;6.30;2.03;;;15.90;49.80;;;;;;5048984;28;20438;-69
2022/04/03 06:22:59;;;;;;;3.83;1.80;;;15.90;49.80;;;;;;5042770;28;20120;-69
2022/04/03 06:25:25;;;;;;;3.22;1.80;;;15.90;49.80;;;;;;5050746;28;20028;-68
2022/04/03 06:27:53;;;;;;;3.83;1.73;;;15.90;49.80;;;;;;5042825;28;20098;-69
2022/04/03 06:30:19;;;;;;;4.35;1.67;;;15.90;49.80;;;;;;5044363;28;20116;-69
2022/04/03 06:32:45;;;;;;;2.58;1.70;;;15.90;49.90;;;;;;5042789;28;20068;-69
2022/04/03 06:35:10;;;;;;;3.55;1.70;;;15.80;49.80;;;;;;5040951;28;20064;-70
2022/04/03 06:37:36;;;;;;;4.43;1.70;;;15.90;49.80;;;;;;5038258;28;20060;-69
2022/04/03 06:40:02;;;;;;;6.63;1.80;;;15.80;49.80;;;;;;5041076;28;20041;-69
2022/04/03 06:42:29;;;;;;;4.18;2.13;;;15.80;49.70;;;;;;5040034;28;20035;-69
2022/04/03 06:44:54;;;;;;;2.03;1.60;;;15.80;49.70;;;;;;5043217;28;20589;-69
2022/04/03 06:47:20;;;;;;;2.88;1.77;;;15.80;49.70;;;;;;5045722;28;20037;-69
2022/04/03 06:49:46;;;;;;;3.10;1.70;;;15.80;49.80;;;;;;5040282;28;20108;-70
2022/04/03 06:52:11;;;;;;;5.80;1.70;;;15.80;49.80;;;;;;5042832;28;20458;-70
2022/04/03 06:54:37;;;;;;;3.60;1.50;;;15.80;49.80;;;;;;5040959;28;20040;-69
2022/04/03 06:57:03;;;;;;;3.10;1.88;;;15.80;49.80;;;;;;5042809;28;20480;-69
2022/04/03 06:59:29;;;;;;;3.03;1.60;;;15.80;49.80;;;;;;5044849;28;20238;-69
2022/04/03 07:01:55;;;;;;;3.55;1.73;;;15.70;49.90;;;;;;5047307;28;20107;-70
2022/04/03 07:04:21;;;;;;;3.42;1.73;;;15.70;49.80;;;;;;5041831;28;20599;-69
2022/04/03 07:06:47;;;;;;;3.40;1.70;;;15.70;49.90;;;;;;5045007;28;20588;-68
2022/04/03 07:09:12;;;;;;;3.75;1.70;;;15.70;49.90;;;;;;5046870;28;20501;-69
2022/04/03 07:11:38;;;;;;;2.47;1.70;;;15.70;50.00;;;;;;5047155;28;20047;-68
2022/04/03 07:14:03;;;;;;;2.75;1.50;;;15.70;49.90;;;;;;5047420;28;20029;-69
2022/04/03 07:16:29;;;;;;;3.92;1.80;;;15.60;49.90;;;;;;5043142;28;20109;-69
2022/04/03 07:18:55;;;;;;;3.00;1.58;;;15.70;49.90;;;;;;5045985;28;20138;-69
2022/04/03 07:21:20;;;;;;;2.63;1.50;;;15.60;50.00;;;;;;5045544;28;20659;-68
2022/04/03 07:23:46;;;;;;;3.85;1.70;;;15.60;50.00;;;;;;5046560;28;20460;-68
2022/04/03 07:26:12;;;;;;;2.85;1.55;;;15.60;49.90;;;;;;5044888;28;20559;-68
2022/04/03 07:28:38;;;;;;;3.10;1.63;;;15.60;49.90;;;;;;5044517;28;20467;-68
2022/04/03 07:31:03;;;;;;;3.33;1.60;;;15.60;50.00;;;;;;5043064;28;20032;-68
2022/04/03 07:33:29;;;;;;;4.63;1.80;;;15.60;50.10;;;;;;5043899;28;25285;-68
2022/04/03 07:35:55;;;;;;;2.75;1.63;;;15.60;50.00;;;;;;5046482;28;20808;-68
2022/04/03 07:38:21;;;;;;;3.03;1.70;;;15.60;50.10;;;;;;5042436;28;20611;-68
2022/04/03 07:40:46;;;;;;;2.60;1.60;;;15.60;50.10;;;;;;5047386;28;20495;-68
2022/04/03 07:43:16;;;;;;;2.72;1.40;;;15.60;50.10;;;;;;5046844;28;20055;-68
2022/04/03 07:45:44;;;;;;;3.13;1.45;;;15.60;50.10;;;;;;5045172;28;20017;-68
2022/04/03 07:48:10;;;;;;;2.67;1.67;;;15.60;50.10;;;;;;5044989;28;20501;-68
2022/04/03 07:50:36;;;;;;;3.17;1.65;;;15.60;50.10;;;;;;5045910;28;20108;-68
2022/04/03 07:53:01;;;;;;;2.17;1.50;;;15.60;50.10;;;;;;5047739;28;20064;-68
2022/04/03 07:55:27;;;;;;;4.07;1.73;;;15.60;50.20;;;;;;5044931;28;20017;-68
2022/04/03 07:57:53;;;;;;;2.85;1.40;;;15.60;50.20;;;;;;5043344;28;20509;-68
2022/04/03 08:00:19;;;;;;;3.72;1.60;;;15.60;50.20;;;;;;5044811;28;20382;-68
2022/04/03 08:02:44;;;;;;;1.92;1.50;;;15.60;50.30;;;;;;5047544;28;20179;-69
2022/04/03 08:05:10;;;;;;;3.63;1.50;;;15.60;50.40;;;;;;5041706;28;20434;-69
2022/04/03 08:07:39;;;;;;;3.25;1.60;;;15.50;50.30;;;;;;5044975;28;20037;-69
2022/04/03 08:10:06;;;;;;;2.72;1.40;;;15.60;50.40;;;;;;5041318;28;20082;-67
2022/04/03 08:12:32;;;;;;;2.85;1.50;;;15.60;50.40;;;;;;5043661;28;20021;-69
2022/04/03 08:14:58;;;;;;;4.80;1.48;;;15.60;50.50;;;;;;5051546;28;20040;-68
2022/04/03 08:17:23;;;;;;;2.47;1.40;;;15.60;50.50;;;;;;5045147;28;20037;-69
2022/04/03 08:19:49;;;;;;;3.75;1.70;;;15.50;50.50;;;;;;5040827;28;20056;-69
2022/04/03 08:22:15;;;;;;;2.55;1.60;;;15.60;50.50;;;;;;5043313;28;20108;-69
2022/04/03 08:24:40;;;;;;;3.22;1.40;;;15.60;50.70;;;;;;5047375;28;20428;-69
2022/04/03 08:27:07;;;;;;;2.03;1.30;;;15.60;50.60;;;;;;5050526;28;20505;-69
2022/04/03 08:29:33;;;;;;;3.05;1.50;;;15.50;50.70;;;;;;5049447;28;20021;-69
2022/04/03 08:31:59;;;;;;;2.33;1.30;;;15.60;50.70;;;;;;5047038;28;20036;-69
2022/04/03 08:34:24;;;;;;;3.03;1.60;;;15.60;50.70;;;;;;5042216;28;20116;-66
2022/04/03 08:36:50;;;;;;;2.10;1.30;;;15.60;50.70;;;;;;5043644;28;20465;-70
2022/04/03 08:39:15;;;;;;;2.42;1.45;;;15.60;50.70;;;;;;5045058;28;20056;-70
2022/04/03 08:41:42;;;;;;;2.03;1.50;;;15.60;50.70;;;;;;5044318;28;20036;-70
2022/04/03 08:44:08;;;;;;;2.83;1.50;;;15.70;50.90;;;;;;5050110;28;20021;-69
2022/04/03 08:46:33;;;;;;;3.50;1.40;;;15.70;51.00;;;;;;5045835;28;20025;-70
2022/04/03 08:49:01;;;;;;;2.55;1.42;;;15.70;51.00;;;;;;5042444;28;20133;-70
2022/04/03 08:51:28;;;;;;;3.45;1.40;;;15.70;50.90;;;;;;5041414;28;20024;-70
2022/04/03 08:53:53;;;;;;;3.08;1.40;;;15.80;51.10;;;;;;5040546;28;20033;-70
2022/04/03 08:56:19;;;;;;;4.65;1.50;;;15.70;50.90;;;;;;5043072;28;20029;-70
2022/04/03 08:58:45;;;;;;;4.03;1.60;;;15.70;50.90;;;;;;5047690;28;20102;-67
2022/04/03 09:01:11;;;;;;;4.78;1.42;;;15.80;51.10;;;;;;5045398;28;20146;-70
2022/04/03 09:03:37;;;;;;;3.88;1.42;;;15.80;51.20;;;;;;5045040;28;20036;-70
2022/04/03 09:06:16;;;;;;;4.70;1.90;;;15.80;51.10;;;;;;5048430;28;20036;-70
2022/04/03 09:08:42;;;;;;;4.75;1.50;;;15.80;51.10;;;;;;5045689;28;20132;-70
2022/04/03 09:11:08;;;;;;;5.10;1.60;;;15.80;51.10;;;;;;5044626;28;20033;-70
2022/04/03 09:13:35;;;;;;;4.70;1.50;;;15.80;51.10;;;;;;5045160;28;20058;-70
2022/04/03 09:16:00;;;;;;;5.65;1.38;;;15.80;51.20;;;;;;5040376;28;20074;-70
2022/04/03 09:18:49;;;;;;;5.13;1.48;;;15.80;51.20;;;;;;5042291;28;20033;-70
2022/04/03 09:21:24;;;;;;;3.80;1.50;;;15.80;51.20;;;;;;5042980;28;20030;-72
2022/04/03 09:23:59;;;;;;;5.30;1.70;;;15.80;51.20;;;;;;5038462;28;20378;-70
2022/04/03 09:26:26;;;;;;;6.32;1.58;;;15.80;51.30;;;;;;5038531;28;20086;-71
2022/04/03 09:29:14;;;;;;;3.50;1.50;;;15.80;51.20;;;;;;5042439;28;20044;-71
2022/04/03 09:31:41;;;;;;;5.13;1.50;;;15.80;51.30;;;;;;5043660;28;20021;-71
2022/04/03 09:34:08;;;;;;;4.28;1.35;;;15.80;51.30;;;;;;5041704;28;20071;-71
2022/04/03 09:36:34;;;;;;;3.67;1.40;;;15.90;51.40;;;;;;5043776;28;20512;-71
2022/04/03 09:39:12;;;;;;;4.55;1.40;;;15.90;51.40;;;;;;5044500;28;20460;-71
2022/04/03 09:41:55;;;;;;;5.38;1.35;;;15.90;51.40;;;;;;5045072;28;20119;-71
2022/04/03 09:44:31;;;;;;;6.68;1.60;;;15.90;51.40;;;;;;5034387;28;20405;-72
2022/04/03 09:47:13;;;;;;;4.38;1.40;;;15.90;51.40;;;;;;5035133;28;20037;-72
2022/04/03 09:49:40;;;;;;;3.30;1.55;;;16.00;51.60;;;;;;5035214;28;20057;-72
2022/04/03 09:52:05;;;;;;;5.22;1.50;;;16.00;51.60;;;;;;5029502;28;20030;-72
2022/04/03 09:54:31;;;;;;;4.75;1.50;;;16.00;51.50;;;;;;5034693;28;20551;-72
2022/04/03 09:57:19;;;;;;;6.63;1.80;;;16.00;51.50;;;;;;5040105;28;20083;-72
2022/04/03 09:59:53;;;;;;;7.28;1.70;;;16.00;51.50;;;;;;5034729;28;20030;-71
2022/04/03 10:02:19;;;;;;;5.13;1.40;;;16.10;51.50;;;;;;5035699;28;20457;-72
2022/04/03 10:04:45;;;;;;;6.22;1.85;;;16.00;51.50;;;;;;5036327;28;20033;-68
2022/04/03 10:07:13;;;;;;;6.63;1.67;;;16.00;51.50;;;;;;5033163;28;20540;-72
2022/04/03 10:09:49;;;;;;;4.07;1.67;;;16.10;51.60;;;;;;5038745;28;20045;-72
2022/04/03 10:12:22;;;;;;;6.38;1.75;;;16.00;51.50;;;;;;5029093;28;20631;-72
2022/04/03 10:14:49;;;;;;;3.90;1.55;;;16.00;51.60;;;;;;5036752;28;20451;-71
2022/04/03 10:17:15;;;;;;;136.75;122.60;;;16.00;51.70;;;;;;5036999;28;20041;-72
2022/04/03 10:19:41;;;;;;;24.73;21.08;;;16.00;51.80;;;;;;5033154;28;20505;-72
2022/04/03 10:22:28;;;;;;;20.33;14.13;;;16.00;51.80;;;;;;5037307;28;20052;-72
2022/04/03 10:24:56;;;;;;;25.45;21.02;;;16.00;51.80;;;;;;5026135;28;20528;-71
2022/04/03 10:27:29;;;;;;;23.23;19.42;;;16.00;51.70;;;;;;5030954;28;20030;-72
2022/04/03 10:29:57;;;;;;;25.15;17.70;;;16.00;51.60;;;;;;5022641;28;20064;-71
2022/04/03 10:32:24;;;;;;;23.17;17.85;;;16.00;51.50;;;;;;5030796;28;20041;-72
2022/04/03 10:34:51;;;;;;;16.33;14.27;;;16.00;51.40;;;;;;5036030;28;20029;-71
2022/04/03 10:37:32;;;;;;;19.48;14.02;;;16.10;51.50;;;;;;5035861;28;20551;-72
2022/04/03 10:40:17;;;;;;;18.20;13.82;;;16.10;51.60;;;;;;5032425;28;20036;-72
2022/04/03 10:42:58;;;;;;;17.30;12.52;;;16.10;51.50;;;;;;5033271;28;20053;-71
2022/04/03 10:45:28;;;;;;;16.98;12.90;;;16.20;51.40;;;;;;5039381;28;20041;-72
2022/04/03 10:48:20;;;;;;;16.60;12.60;;;16.20;51.40;;;;;;5039534;28;20485;-72
2022/04/03 10:50:55;;;;;;;16.67;12.00;;;16.30;51.40;;;;;;5056321;28;20037;-70
2022/04/03 10:53:25;;;;;;;17.45;11.82;;;16.30;51.20;;;;;;5054809;28;20373;-72
2022/04/03 10:55:55;;;;;;;14.43;10.95;;;16.40;51.30;;;;;;5045069;28;20049;-72
2022/04/03 10:58:21;;;;;;;14.70;10.63;;;16.40;51.20;;;;;;5038389;28;21805;-72
2022/04/03 11:00:50;;;;;;;14.27;10.38;;;16.40;51.10;;;;;;5049185;28;20100;-72
2022/04/03 11:03:19;;;;;;;16.55;9.75;;;16.50;51.00;;;;;;5045307;28;20052;-72
2022/04/03 11:05:48;;;;;;;13.57;10.10;;;16.60;50.90;;;;;;5046229;28;20128;-72
2022/04/03 11:08:17;;;;;;;15.57;9.65;;;16.60;50.90;;;;;;5043199;28;20547;-72
2022/04/03 11:10:48;;;;;;;13.73;9.80;;;16.60;50.90;;;;;;5047898;28;20032;-72
2022/04/03 11:13:17;;;;;;;14.25;9.10;;;16.70;51.00;;;;;;5043491;28;20064;-73
2022/04/03 11:15:44;;;;;;;13.20;8.82;;;16.70;50.90;;;;;;5046971;28;20044;-72
2022/04/03 11:18:42;;;;;;;13.38;9.38;;;16.80;50.90;;;;;;5040024;28;20112;-72
2022/04/03 11:21:09;;;;;;;12.57;9.20;;;16.80;50.80;;;;;;5036204;28;20112;-73
2022/04/03 11:23:36;;;;;;;13.60;9.13;;;16.80;50.80;;;;;;5029813;28;20048;-73
2022/04/03 11:26:02;;;;;;;13.13;8.65;;;16.90;50.90;;;;;;5009799;28;20105;-72
2022/04/03 11:28:28;;;;;;;12.52;8.60;;;16.90;50.70;;;;;;5030109;28;20135;-73
2022/04/03 11:30:55;;;;;;;12.20;8.18;;;17.00;50.70;;;;;;5021655;28;20041;-73
2022/04/03 11:33:21;;;;;;;12.88;7.95;;;17.10;50.60;;;;;;5027823;28;20033;-73
2022/04/03 11:35:47;;;;;;;12.68;8.32;;;17.20;50.60;;;;;;5017141;28;20026;-73
2022/04/03 11:38:13;;;;;;;13.50;7.70;;;17.20;50.50;;;;;;5015309;28;20036;-73
2022/04/03 11:40:40;;;;;;;10.90;7.60;;;17.30;50.50;;;;;;5019120;28;20506;-73
2022/04/03 11:43:08;;;;;;;11.85;7.50;;;17.30;50.50;;;;;;5018043;28;20191;-73
2022/04/03 11:45:39;;;;;;;11.40;8.02;;;17.40;50.40;;;;;;5025381;28;20037;-74
2022/04/03 11:48:18;;;;;;;11.60;7.85;;;17.50;50.20;;;;;;5014833;28;20049;-73
2022/04/03 11:50:44;;;;;;;10.90;6.88;;;17.50;50.10;;;;;;5034623;28;20119;-73
2022/04/03 11:53:10;;;;;;;16.48;7.20;;;17.60;50.40;;;;;;5024065;28;20116;-74
2022/04/03 11:55:36;;;;;;;12.68;7.47;;;17.60;50.30;;;;;;5019577;28;20541;-75
2022/04/03 11:58:04;;;;;;;10.57;6.85;;;17.70;50.10;;;;;;5018431;28;20159;-75
2022/04/03 12:00:31;;;;;;;11.02;6.90;;;17.80;50.00;;;;;;5019839;28;20025;-75
2022/04/03 12:03:00;;;;;;;12.73;6.28;;;17.80;50.00;;;;;;5052880;28;20067;-73
2022/04/03 12:05:27;;;;;;;10.15;6.15;;;18.00;50.20;;;;;;5013332;28;20033;-72
2022/04/03 12:07:53;;;;;;;8.88;6.35;;;18.00;50.60;;;;;;5022320;28;20040;-74
2022/04/03 12:10:26;;;;;;;10.30;6.20;;;18.10;50.40;;;;;;5030188;28;20017;-75
2022/04/03 12:12:53;;;;;;;11.15;6.25;;;18.20;50.40;;;;;;5018170;28;20364;-75
2022/04/03 12:15:21;;;;;;;12.23;5.88;;;18.20;50.30;;;;;;5024719;28;20041;-73
2022/04/03 12:17:47;;;;;;;9.95;5.50;;;18.30;50.40;;;;;;5018543;28;20033;-75
2022/04/03 12:20:12;;;;;;;9.23;5.70;;;18.30;50.30;;;;;;5017598;28;20026;-74
2022/04/03 12:22:41;;;;;;;9.55;5.63;;;18.30;50.20;;;;;;5017081;28;20119;-75
2022/04/03 12:25:07;;;;;;;8.02;5.90;;;18.40;50.00;;;;;;5012649;28;20026;-75
2022/04/03 12:27:33;;;;;;;9.95;5.43;;;18.50;50.00;;;;;;5023688;28;20092;-74
2022/04/03 12:29:59;;;;;;;8.30;5.40;;;18.50;49.80;;;;;;5026375;28;20038;-75
2022/04/03 12:32:35;;;;;;;9.55;5.35;;;18.50;50.00;;;;;;5019737;28;20478;-73
2022/04/03 12:35:01;;;;;;;13.35;10.13;;;18.50;49.90;;;;;;5019043;28;20033;-75
2022/04/03 12:37:27;;;;;;;13.32;10.95;;;18.50;49.70;;;;;;5020647;28;20498;-76
2022/04/03 12:39:53;;;;;;;13.90;8.77;;;18.50;49.40;;;;;;5048925;28;20052;-73
2022/04/03 12:42:35;;;;;;;10.30;6.18;;;18.50;49.30;;;;;;5016143;28;20030;-72
2022/04/03 12:45:10;;;;;;;9.38;5.32;;;18.60;48.90;;;;;;5015665;28;20063;-74
2022/04/03 12:47:50;;;;;;;8.80;5.30;;;18.60;48.60;;;;;;5015683;28;20378;-73